• Join FlightAware (Why Join?)
  • Login
  • US Flag 
10:38AM EDT


 

Airport Tracker/Info


-or-


 

Live Flight TrackerFlight Track Log ✈ SWA642 ✈ 21-Apr-2013 ✈ KISP - KTPA

Flight Track Log - Related Links

Times and Time Zones

All times are in EDT time to prevent confusion due to time zone crossing. See the SWA642 flight status page for this flight to view local times or setup timezone preferences in your user account.

Time Position Orientation Groundspeed Altitude Reporting Facility
EDT Latitude Longitude Course Direction KTS MPH feet Rate Location/Type
06:51AM 40.8147 -73.0764 97° East 149 171 1,600  Level Boston Center
06:52AM 40.8089 -73.0133 97° East 157 181 3,900 2,400 Climbing Boston Center
06:53AM 40.7967 -72.9200 100° East 209 241 6,400 2,040 Climbing Boston Center
06:54AM 40.7783 -72.8128 103° East 253 291 8,000 1,560 Climbing Boston Center
06:55AM 40.7600 -72.7058 103° East 283 326 9,600 1,620 Climbing Boston Center
06:56AM 40.7394 -72.5908 103° East 327 376 11,300 2,520 Climbing Boston Center
06:57AM 40.6853 -72.4756 122° Southeast 358 412 14,700 3,300 Climbing Boston Center
06:58AM 40.5914 -72.4947 189° South 276 318 17,900 3,000 Climbing Boston Center
06:59AM 40.5558 -72.6231 250° West 231 266 20,800 2,700 Climbing Boston Center
07:00AM 40.5328 -72.7486 256° West 295 339 23,400 2,520 Climbing Boston Center
07:01AM 40.5072 -72.8742 255° West 323 372 25,900 2,100 Climbing Boston Center
07:03AM 40.4608 -73.1414 257° West 366 421 29,800 1,920 Climbing New York Center
07:04AM 40.4436 -73.2744 260° West 373 429 31,800 1,800 Climbing New York Center
07:05AM 40.4239 -73.4100 259° West 379 436 33,500 1,680 Climbing New York Center
07:06AM 40.4083 -73.5431 261° West 379 436 35,200 1,500 Climbing New York Center
07:07AM 40.3906 -73.6758 260° West 379 436 36,600 1,140 Climbing New York Center
07:08AM 40.3683 -73.8111 258° West 379 436 37,500 1,020 Climbing New York Center
07:09AM 40.3481 -73.9464 259° West 379 436 38,700 1,020 Climbing New York Center
07:10AM 40.3297 -74.0817 260° West 379 436 39,600 660 Climbing New York Center
07:11AM 40.3069 -74.2222 258° West 392 451 40,000 180 Climbing New York Center
07:12AM 40.2883 -74.3600 260° West 392 451 40,000  Level New York Center
07:13AM 40.2672 -74.4975 259° West 392 451 40,000  Level New York Center
07:14AM 40.2461 -74.6378 259° West 392 451 40,000  Level New York Center
07:15AM 40.2250 -74.7672 258° West 397 457 40,000  Level New York Center
07:16AM 40.2056 -74.9128 260° West 397 457 40,000  Level New York Center
07:17AM 40.1836 -75.0556 259° West 397 457 40,000  Level New York Center
07:18AM 40.1619 -75.1925 258° West 397 457 40,000  Level New York Center
07:19AM 40.1378 -75.3322 257° West 392 451 40,000  Level New York Center
07:20AM 40.0853 -75.4483 239° Southwest 377 434 40,000  Level New York Center
07:21AM 40.0103 -75.5517 227° Southwest 386 444 40,000  Level New York Center
07:22AM 39.9375 -75.6522 227° Southwest 386 444 40,000  Level New York Center
07:23AM 39.8706 -75.7558 230° Southwest 386 444 40,000  Level New York Center
07:24AM 39.8056 -75.8592 231° Southwest 386 444 40,000  Level New York Center
07:25AM 39.7364 -75.9650 230° Southwest 386 444 40,000  Level New York Center
07:28AM 39.5828 -76.2081 231° Southwest 382 440 40,000  Level Washington Center
07:29AM 39.5156 -76.3097 229° Southwest 377 434 40,000  Level Washington Center
07:30AM 39.4483 -76.4139 230° Southwest 377 434 40,000  Level Washington Center
07:31AM 39.3789 -76.5178 229° Southwest 377 434 40,000  Level Washington Center
07:32AM 39.3111 -76.6217 230° Southwest 377 434 40,000  Level Washington Center
07:33AM 39.2436 -76.7278 231° Southwest 377 434 40,000  Level Washington Center
07:34AM 39.1736 -76.8367 230° Southwest 382 440 40,000  Level Washington Center
07:35AM 39.0994 -76.9531 231° Southwest 382 440 40,000  Level Washington Center
07:36AM 39.0358 -77.0453 228° Southwest 382 440 40,000  Level Washington Center
07:37AM 38.9556 -77.1372 222° Southwest 387 445 40,000  Level Washington Center
07:38AM 38.8731 -77.2261 220° Southwest 387 445 40,000  Level Washington Center
07:39AM 38.7906 -77.3147 220° Southwest 393 452 40,000  Level Washington Center
07:40AM 38.7081 -77.4033 220° Southwest 393 452 40,000  Level Washington Center
07:41AM 38.6189 -77.5047 222° Southwest 393 452 40,000  Level Washington Center
07:42AM 38.5361 -77.5956 221° Southwest 393 452 40,000  Level Washington Center
07:43AM 38.4511 -77.6833 219° Southwest 388 447 40,000  Level Washington Center
07:44AM 38.3703 -77.7739 221° Southwest 393 452 40,000  Level Washington Center
07:45AM 38.2831 -77.8667 220° Southwest 393 452 40,000  Level Washington Center
07:46AM 38.2022 -77.9567 221° Southwest 398 458 40,000  Level Washington Center
07:47AM 38.1256 -78.0333 218° Southwest 398 458 40,000  Level Washington Center
07:48AM 38.0336 -78.1358 221° Southwest 400 460 40,000  Level Washington Center
07:49AM 37.9506 -78.2172 218° Southwest 394 453 40,000  Level Washington Center
07:50AM 37.8631 -78.3036 218° Southwest 394 453 40,000  Level Washington Center
07:51AM 37.7736 -78.3844 216° Southwest 399 459 40,000  Level Washington Center
07:52AM 37.6861 -78.4678 217° Southwest 399 459 40,000  Level Washington Center
07:53AM 37.6094 -78.5411 217° Southwest 399 459 40,000  Level Washington Center
07:54AM 37.5219 -78.6214 216° Southwest 399 459 40,000  Level Washington Center
07:55AM 37.4319 -78.7067 217° Southwest 399 459 40,000  Level Washington Center
07:56AM 37.3422 -78.7894 216° Southwest 399 459 40,000  Level Washington Center
07:57AM 37.2525 -78.8717 216° Southwest 399 459 40,000  Level Washington Center
07:58AM 37.1539 -78.9639 217° Southwest 404 465 40,000  Level Washington Center
07:59AM 37.0639 -79.0483 217° Southwest 404 465 40,000  Level Washington Center
08:00AM 36.9719 -79.1275 215° Southwest 404 465 40,000  Level Washington Center
08:01AM 36.8839 -79.2117 217° Southwest 404 465 40,000  Level Washington Center
08:02AM 36.7936 -79.2958 217° Southwest 404 465 40,000  Level Washington Center
08:03AM 36.7142 -79.3697 217° Southwest 404 465 40,000  Level Washington Center
08:04AM 36.6239 -79.4506 216° Southwest 399 459 40,000  Level Washington Center
08:05AM 36.4819 -79.5794 216° Southwest 401 461 40,000  Level Atlanta Center
08:06AM 36.3911 -79.6594 215° Southwest 401 461 40,000  Level Atlanta Center
08:07AM 36.2961 -79.7469 217° Southwest 396 456 40,000  Level Atlanta Center
08:08AM 36.2092 -79.8264 216° Southwest 396 456 40,000  Level Atlanta Center
08:09AM 36.1219 -79.9028 215° Southwest 391 450 40,000  Level Atlanta Center
08:10AM 36.0331 -79.9844 217° Southwest 396 456 40,000  Level Atlanta Center
08:11AM 35.9303 -80.0306 200° South 396 456 40,000  Level Atlanta Center
08:12AM 35.8358 -80.0761 201° Southwest 401 461 40,000  Level Atlanta Center
08:13AM 35.7331 -80.1272 202° Southwest 406 467 40,000  Level Atlanta Center
08:14AM 35.6183 -80.1889 204° Southwest 412 474 40,000  Level Atlanta Center
08:15AM 35.5175 -80.2394 202° Southwest 406 467 40,000  Level Atlanta Center
08:16AM 35.4208 -80.2847 201° Southwest 406 467 40,000  Level Atlanta Center
08:17AM 35.3142 -80.3381 202° Southwest 411 473 40,000  Level Atlanta Center
08:19AM 35.1183 -80.4311 201° Southwest 425 489 40,000  Level Jacksonville Center
08:20AM 35.0131 -80.4847 203° Southwest 419 482 40,000  Level Jacksonville Center
08:21AM 34.9075 -80.5358 202° Southwest 413 475 40,000  Level Jacksonville Center
08:22AM 34.7981 -80.5919 203° Southwest 402 463 40,000  Level Jacksonville Center
08:23AM 34.7008 -80.6375 201° Southwest 402 463 40,000  Level Jacksonville Center
08:24AM 34.5994 -80.6881 202° Southwest 407 468 40,000  Level Jacksonville Center
08:25AM 34.4775 -80.7417 200° South 413 475 40,000  Level Jacksonville Center
08:26AM 34.3719 -80.8019 205° Southwest 408 470 40,000  Level Jacksonville Center
08:27AM 34.2931 -80.8242 193° South 400 460 40,000  Level Jacksonville Center
08:28AM 34.1794 -80.8844 204° Southwest 400 460 40,000  Level Jacksonville Center
08:29AM 34.0736 -80.9369 202° Southwest 406 467 40,000  Level Jacksonville Center
08:30AM 33.9703 -80.9869 202° Southwest 411 473 40,000  Level Jacksonville Center
08:31AM 33.8603 -81.0369 201° Southwest 411 473 40,000  Level Jacksonville Center
08:32AM 33.7567 -81.0864 202° Southwest 411 473 40,000  Level Jacksonville Center
08:33AM 33.6489 -81.1386 202° Southwest 411 473 40,000  Level Jacksonville Center
08:34AM 33.5431 -81.1881 201° Southwest 411 473 40,000  Level Jacksonville Center
08:35AM 33.4394 -81.2372 202° Southwest 411 473 40,000  Level Jacksonville Center
08:36AM 33.3294 -81.2867 201° Southwest 411 473 40,000  Level Jacksonville Center
08:37AM 33.2236 -81.3358 201° Southwest 411 473 40,000  Level Jacksonville Center
08:38AM 33.1178 -81.3847 201° Southwest 411 473 40,000  Level Jacksonville Center
08:39AM 33.0119 -81.4336 201° Southwest 411 473 40,000  Level Jacksonville Center
08:40AM 32.9061 -81.4822 201° Southwest 411 473 40,000  Level Jacksonville Center
08:41AM 32.7958 -81.5308 200° South 411 473 40,000  Level Jacksonville Center
08:42AM 32.6817 -81.5844 202° Southwest 411 473 40,000  Level Jacksonville Center
08:43AM 32.5778 -81.6328 201° Southwest 406 467 40,000  Level Jacksonville Center
08:44AM 32.4822 -81.6761 201° Southwest 411 473 40,000  Level Jacksonville Center
08:45AM 32.3658 -81.7194 197° South 406 467 40,000  Level Jacksonville Center
08:46AM 32.2617 -81.7453 192° South 413 475 40,000  Level Jacksonville Center
08:47AM 32.1386 -81.7739 191° South 413 475 40,000  Level Jacksonville Center
08:48AM 32.0261 -81.8022 192° South 413 475 40,000  Level Jacksonville Center
08:49AM 31.9261 -81.8253 191° South 413 475 40,000  Level Jacksonville Center
08:50AM 31.8031 -81.8511 190° South 413 475 40,000  Level Jacksonville Center
08:51AM 31.6928 -81.8792 192° South 413 475 40,000  Level Jacksonville Center
08:52AM 31.5781 -81.9072 192° South 413 475 40,000  Level Jacksonville Center
08:53AM 31.4656 -81.9331 191° South 413 475 40,000  Level Jacksonville Center
08:54AM 31.3531 -81.9558 190° South 413 475 40,000  Level Jacksonville Center
08:55AM 31.2406 -81.9864 193° South 413 475 40,000  Level Jacksonville Center
08:56AM 31.1383 -82.0092 191° South 419 482 40,000  Level Jacksonville Center
08:57AM 31.0217 -82.0344 191° South 419 482 40,000  Level Jacksonville Center
08:58AM 30.9089 -82.0619 192° South 424 488 40,000  Level Jacksonville Center
08:59AM 30.7942 -82.0872 191° South 424 488 40,000  Level Jacksonville Center
09:00AM 30.6817 -82.1147 192° South 424 488 40,000  Level Jacksonville Center
09:01AM 30.5628 -82.1397 190° South 430 495 40,000 -420 Level Jacksonville Center
09:02AM 30.4481 -82.1600 189° South 430 495 39,200 -900 Descending Jacksonville Center
09:03AM 30.3356 -82.1875 192° South 425 489 38,200 -840 Descending Jacksonville Center
09:04AM 30.2208 -82.2122 191° South 425 489 37,600 -840 Descending Jacksonville Center
09:05AM 30.1042 -82.2394 191° South 430 495 36,600 -960 Descending Jacksonville Center
09:06AM 29.9872 -82.2714 193° South 430 495 35,700 -1,020 Descending Jacksonville Center
09:07AM 29.8706 -82.2961 190° South 430 495 34,600 -2,160 Descending Jacksonville Center
09:08AM 29.7517 -82.3256 192° South 430 495 31,400 -3,300 Descending Jacksonville Center
09:09AM 29.6306 -82.3478 189° South 430 495 28,000 -2,580 Descending Jacksonville Center
09:10AM 29.5097 -82.3508 181° South 430 495 26,300 -1,380 Descending Jacksonville Center
09:11AM 29.3906 -82.3372 174° South 425 489 25,300 -1,020 Descending Jacksonville Center
09:12AM 29.2714 -82.3189 172° South 425 489 24,300 -1,380 Descending Jacksonville Center
09:13AM 29.1544 -82.3078 175° South 425 489 22,600 -2,100 Descending Jacksonville Center
09:14AM 29.0439 -82.2942 174° South 420 483 20,100 -2,400 Descending Jacksonville Center
09:15AM 28.9247 -82.2806 174° South 407 468 17,800 -2,520 Descending Jacksonville Center
09:16AM 28.8203 -82.2692 175° South 394 453 15,100 -1,560 Descending Jacksonville Center
09:19AM 28.5667 -82.2500 176° South 369 425 12,400 -1,080 Descending Tampa TRACON
09:20AM 28.4667 -82.2667 188° South 351 404 11,400 -840 Descending Tampa TRACON
09:21AM 28.3833 -82.3000 199° South 341 392 10,900 -240 Descending Tampa TRACON
09:22AM 28.3167 -82.3167 192° South 288 331 11,000 -540 Climbing Tampa TRACON
09:23AM 28.2333 -82.3333 190° South 283 326 9,900 -1,320 Descending Tampa TRACON
09:24AM 28.1667 -82.3667 204° Southwest 278 320 8,400 -1,560 Descending Tampa TRACON
09:25AM 28.0833 -82.3833 190° South 274 315 6,800 -1,560 Descending Tampa TRACON
09:26AM 28.0167 -82.4167 204° Southwest 268 308 5,300 -900 Descending Tampa TRACON
09:27AM 27.9500 -82.4167 180° South 254 292 5,000 -600 Descending Tampa TRACON
09:28AM 27.8833 -82.4167 180° South 233 268 4,200 -900 Descending Tampa TRACON
09:29AM 27.8167 -82.4167 180° South 230 265 3,200 -840 Descending Tampa TRACON
09:30AM 27.7667 -82.4667 222° Southwest 236 272 2,600 -300 Descending Tampa TRACON
09:31AM 27.7667 -82.5333 270° West 218 251 2,600  Level Tampa TRACON
09:32AM 27.8167 -82.5500 344° North 203 234 2,600 -420 Level Tampa TRACON
09:33AM 27.8667 -82.5500 360° North 186 214 1,800 -840 Descending Tampa TRACON
09:34AM 27.9167 -82.5500 360° North 154 177 1,000 -780 Descending Tampa TRACON
09:35AM 27.9500 -82.5500 360° North 135 155 300 -720 Descending Tampa TRACON
09:37AM 27.9667 -82.5167 350° North  Level FlightAware Approximate
09:44AM 27.9755 -82.5332 350° North  Level Estimated